Time;durP1;ratioP1;P1;durP2;ratioP2;P2;SDS_P1;SDS_P2;PMS_P1;PMS_P2;Temp;Humidity;BMP_temperature;BMP_pressure;BME280_temperature;BME280_humidity;BME280_pressure;Samples;Min_cycle;Max_cycle;Signal;HPM_P1;HPM_P2
2023/07/20 00:00:39;;;;;;;6.77;6.17;;;16.60;99.90;;;;;;5048184;28;20424;-72
2023/07/20 00:03:16;;;;;;;9.40;6.23;;;16.70;99.90;;;;;;5047336;28;20431;-72
2023/07/20 00:05:47;;;;;;;7.07;6.30;;;16.70;99.90;;;;;;5048000;28;20196;-72
2023/07/20 00:08:13;;;;;;;6.87;6.17;;;16.70;99.90;;;;;;5046356;28;20468;-72
2023/07/20 00:10:41;;;;;;;8.33;5.50;;;16.70;99.90;;;;;;5047924;28;20553;-72
2023/07/20 00:13:07;;;;;;;7.80;5.73;;;16.80;99.90;;;;;;5047317;28;20182;-72
2023/07/20 00:15:32;;;;;;;6.10;5.27;;;16.80;99.90;;;;;;5046432;28;20746;-72
2023/07/20 00:17:58;;;;;;;6.63;5.40;;;16.80;99.90;;;;;;5047887;28;20272;-72
2023/07/20 00:20:25;;;;;;;6.73;6.03;;;16.80;99.90;;;;;;5047842;28;20181;-72
2023/07/20 00:22:51;;;;;;;7.00;5.70;;;16.90;99.90;;;;;;5046277;28;20189;-72
2023/07/20 00:25:18;;;;;;;6.53;5.83;;;16.80;99.90;;;;;;5046833;28;20459;-72
2023/07/20 00:27:44;;;;;;;5.87;5.37;;;16.80;99.90;;;;;;5054417;28;20784;-72
2023/07/20 00:30:10;;;;;;;5.97;5.37;;;16.90;99.90;;;;;;5053639;28;20551;-72
2023/07/20 00:32:36;;;;;;;5.20;4.70;;;16.90;99.90;;;;;;5051385;28;20265;-72
2023/07/20 00:35:01;;;;;;;7.93;6.43;;;17.00;99.90;;;;;;5051432;28;20499;-72
2023/07/20 00:37:27;;;;;;;6.53;5.40;;;17.00;99.90;;;;;;5051370;28;20297;-72
2023/07/20 00:39:53;;;;;;;6.77;6.17;;;17.10;99.90;;;;;;5051751;28;20197;-72
2023/07/20 00:42:19;;;;;;;6.20;5.57;;;17.00;99.90;;;;;;5051249;28;20307;-72
2023/07/20 00:44:45;;;;;;;6.27;5.70;;;17.00;99.90;;;;;;5044940;28;20429;-72
2023/07/20 00:47:10;;;;;;;7.23;5.40;;;17.00;99.90;;;;;;5031817;28;20206;-72
2023/07/20 00:49:37;;;;;;;7.20;5.43;;;17.00;99.90;;;;;;5046876;28;20670;-72
2023/07/20 00:52:06;;;;;;;6.87;6.00;;;17.00;99.90;;;;;;5046700;28;20240;-72
2023/07/20 00:54:32;;;;;;;7.10;6.20;;;16.90;99.90;;;;;;5031537;28;20507;-72
2023/07/20 00:57:00;;;;;;;8.63;6.40;;;16.90;99.90;;;;;;5030154;28;20469;-72
2023/07/20 00:59:26;;;;;;;7.67;6.87;;;16.80;99.90;;;;;;5031573;28;20463;-72
2023/07/20 01:01:52;;;;;;;7.10;6.40;;;16.80;99.90;;;;;;5031533;28;20515;-72
2023/07/20 01:04:18;;;;;;;7.07;5.97;;;16.80;99.90;;;;;;5030962;28;20847;-72
2023/07/20 01:07:12;;;;;;;6.93;6.33;;;16.80;99.90;;;;;;5029757;28;20221;-72
2023/07/20 01:09:47;;;;;;;7.13;6.43;;;16.80;99.90;;;;;;5031272;28;20496;-72
2023/07/20 01:12:22;;;;;;;6.80;6.20;;;16.80;99.90;;;;;;5030930;28;20428;-72
2023/07/20 01:14:49;;;;;;;6.70;5.50;;;16.70;99.90;;;;;;5031006;28;20503;-72
2023/07/20 01:17:15;;;;;;;8.00;6.17;;;16.70;99.90;;;;;;5031126;28;20436;-72
2023/07/20 01:19:41;;;;;;;6.00;5.43;;;16.70;99.90;;;;;;5031249;28;20421;-72
2023/07/20 01:22:09;;;;;;;7.50;5.97;;;16.60;99.90;;;;;;5030752;28;20646;-72
2023/07/20 01:24:50;;;;;;;9.17;5.90;;;16.50;99.90;;;;;;5030861;28;20192;-72
2023/07/20 01:27:22;;;;;;;6.90;6.20;;;16.60;99.90;;;;;;5044272;28;20451;-72
2023/07/20 01:30:17;;;;;;;7.13;6.27;;;16.60;99.90;;;;;;5050897;28;20547;-72
2023/07/20 01:32:44;;;;;;;6.40;5.80;;;16.60;99.90;;;;;;5050580;28;20412;-72
2023/07/20 01:35:14;;;;;;;7.33;6.37;;;16.70;99.90;;;;;;5050533;28;20738;-72
2023/07/20 01:37:43;;;;;;;7.93;6.60;;;16.70;99.90;;;;;;5050173;28;20482;-72
2023/07/20 01:40:10;;;;;;;7.60;6.87;;;16.70;99.90;;;;;;5050542;28;20914;-72
2023/07/20 01:42:36;;;;;;;7.17;6.40;;;16.60;99.90;;;;;;5050269;28;20423;-72
2023/07/20 01:45:01;;;;;;;6.83;6.23;;;16.60;99.90;;;;;;5050403;28;20781;-72
2023/07/20 01:47:27;;;;;;;7.33;6.40;;;16.60;99.90;;;;;;5050606;28;20212;-72
2023/07/20 01:49:53;;;;;;;9.43;6.80;;;16.60;99.90;;;;;;5050352;28;20288;-72
2023/07/20 01:52:18;;;;;;;9.63;8.17;;;16.60;99.90;;;;;;5050240;28;20206;-72
2023/07/20 01:54:44;;;;;;;10.03;6.97;;;16.60;99.90;;;;;;5049967;28;20209;-72
2023/07/20 01:57:10;;;;;;;9.43;7.60;;;16.70;99.90;;;;;;5048715;28;20201;-72
2023/07/20 01:59:35;;;;;;;9.33;7.17;;;16.60;99.90;;;;;;5050247;28;20177;-72
2023/07/20 02:02:01;;;;;;;7.87;7.07;;;16.60;99.90;;;;;;5049994;28;20650;-72
2023/07/20 02:04:26;;;;;;;8.07;7.27;;;16.60;99.90;;;;;;5050060;28;20181;-72
2023/07/20 02:06:52;;;;;;;9.97;7.10;;;16.50;99.90;;;;;;5049930;28;20558;-72
2023/07/20 02:09:18;;;;;;;7.50;6.77;;;16.50;99.90;;;;;;5049008;28;20210;-72
2023/07/20 02:11:43;;;;;;;9.03;8.13;;;16.50;99.90;;;;;;5050177;28;20212;-72
2023/07/20 02:14:09;;;;;;;7.63;6.93;;;16.50;99.90;;;;;;5049768;28;20216;-72
2023/07/20 02:16:35;;;;;;;9.27;7.30;;;16.50;99.90;;;;;;5049668;28;20200;-72
2023/07/20 02:19:01;;;;;;;10.00;6.70;;;16.60;99.90;;;;;;5050076;28;20182;-72
2023/07/20 02:21:27;;;;;;;7.70;7.00;;;16.60;99.90;;;;;;5049940;28;20416;-72
2023/07/20 02:23:52;;;;;;;8.63;7.80;;;16.60;99.90;;;;;;5049513;28;20666;-72
2023/07/20 02:26:18;;;;;;;8.73;7.73;;;16.60;99.90;;;;;;5048173;28;20226;-72
2023/07/20 02:28:44;;;;;;;9.70;7.13;;;16.50;99.90;;;;;;5048541;28;20185;-71
2023/07/20 02:31:11;;;;;;;8.70;7.80;;;16.40;99.90;;;;;;5049650;28;20170;-71
2023/07/20 02:33:37;;;;;;;9.80;7.80;;;16.40;99.90;;;;;;5049407;28;20181;-72
2023/07/20 02:36:03;;;;;;;8.37;7.57;;;16.40;99.90;;;;;;5049243;28;20428;-72
2023/07/20 02:38:28;;;;;;;8.27;6.50;;;16.50;99.90;;;;;;5049597;28;20635;-72
2023/07/20 02:40:54;;;;;;;8.87;7.40;;;16.50;99.90;;;;;;5048629;28;20182;-72
2023/07/20 02:43:20;;;;;;;8.60;7.70;;;16.50;99.90;;;;;;5049233;28;20181;-72
2023/07/20 02:45:45;;;;;;;8.60;6.83;;;16.50;99.90;;;;;;5049125;28;20267;-72
2023/07/20 02:48:11;;;;;;;8.13;7.23;;;16.50;99.90;;;;;;5048875;28;20182;-72
2023/07/20 02:50:37;;;;;;;8.83;7.93;;;16.50;99.90;;;;;;5049161;28;20213;-72
2023/07/20 02:53:03;;;;;;;8.67;7.87;;;16.50;99.90;;;;;;5048969;28;20209;-72
2023/07/20 02:55:28;;;;;;;8.17;7.13;;;16.50;99.90;;;;;;5048132;28;20186;-72
2023/07/20 02:57:54;;;;;;;13.13;9.20;;;16.40;99.90;;;;;;5049042;28;20251;-72
2023/07/20 03:00:20;;;;;;;7.93;7.13;;;16.40;99.90;;;;;;5047918;28;20188;-72
2023/07/20 03:02:49;;;;;;;12.90;8.00;;;16.30;99.90;;;;;;5048749;28;20615;-72
2023/07/20 03:05:16;;;;;;;10.87;8.30;;;16.30;99.90;;;;;;5048676;28;20173;-72
2023/07/20 03:07:43;;;;;;;8.57;7.67;;;16.30;99.90;;;;;;5048883;28;20451;-72
2023/07/20 03:10:09;;;;;;;8.70;7.80;;;16.30;99.90;;;;;;5049004;28;20463;-72
2023/07/20 03:12:35;;;;;;;10.40;7.43;;;16.30;99.90;;;;;;5047045;28;20840;-72
2023/07/20 03:15:02;;;;;;;8.10;7.27;;;16.40;99.90;;;;;;5047322;28;20412;-72
2023/07/20 03:17:28;;;;;;;8.97;8.07;;;16.50;99.90;;;;;;5048723;28;20435;-72
2023/07/20 03:19:54;;;;;;;12.10;11.00;;;16.40;99.90;;;;;;5048748;28;20420;-72
2023/07/20 03:22:21;;;;;;;12.83;11.00;;;16.40;99.90;;;;;;5048435;28;20192;-72
2023/07/20 03:24:47;;;;;;;12.57;11.37;;;16.40;99.90;;;;;;5048656;28;20185;-72
2023/07/20 03:27:13;;;;;;;12.97;11.77;;;16.40;99.90;;;;;;5047291;28;20797;-72
2023/07/20 03:29:39;;;;;;;13.33;11.97;;;16.40;99.90;;;;;;5047256;28;20816;-72
2023/07/20 03:32:05;;;;;;;12.77;11.47;;;16.40;99.90;;;;;;5048184;28;20553;-72
2023/07/20 03:34:31;;;;;;;12.57;11.43;;;16.40;99.90;;;;;;5048442;28;20516;-72
2023/07/20 03:36:57;;;;;;;12.50;11.20;;;16.40;99.90;;;;;;5048254;28;20514;-72
2023/07/20 03:39:23;;;;;;;13.37;12.00;;;16.40;99.90;;;;;;5048724;28;20273;-71
2023/07/20 03:41:48;;;;;;;14.30;12.90;;;16.30;99.90;;;;;;5048556;28;20174;-71
2023/07/20 03:44:14;;;;;;;12.30;11.07;;;16.30;99.90;;;;;;5048087;28;20912;-71
2023/07/20 03:46:40;;;;;;;11.40;10.20;;;16.20;99.90;;;;;;5048012;28;20259;-71
2023/07/20 03:49:06;;;;;;;11.80;10.60;;;16.20;99.90;;;;;;5048351;28;20239;-71
2023/07/20 03:51:32;;;;;;;11.90;10.70;;;16.30;99.90;;;;;;5048152;28;20213;-72
2023/07/20 03:53:58;;;;;;;12.80;9.97;;;16.30;99.90;;;;;;5048189;28;20447;-72
2023/07/20 03:56:24;;;;;;;12.77;10.37;;;16.30;99.90;;;;;;5047282;28;20428;-71
2023/07/20 03:58:50;;;;;;;12.80;10.70;;;16.40;99.90;;;;;;5048408;28;20174;-72
2023/07/20 04:01:16;;;;;;;14.57;11.90;;;16.40;99.90;;;;;;5046867;28;20470;-71
2023/07/20 04:03:43;;;;;;;16.87;13.03;;;16.40;99.90;;;;;;5047881;28;20176;-71
2023/07/20 04:06:09;;;;;;;18.30;13.00;;;16.30;99.90;;;;;;5047855;28;20432;-71
2023/07/20 04:08:37;;;;;;;20.30;13.93;;;16.30;99.90;;;;;;5048315;28;20471;-71
2023/07/20 04:11:02;;;;;;;14.80;13.20;;;16.30;99.90;;;;;;5048136;28;20516;-71
2023/07/20 04:13:28;;;;;;;14.13;12.70;;;16.30;99.90;;;;;;5047673;28;20419;-71
2023/07/20 04:15:55;;;;;;;15.80;14.17;;;16.30;99.90;;;;;;5046689;28;20193;-71
2023/07/20 04:18:20;;;;;;;15.03;13.43;;;16.20;99.90;;;;;;5048075;28;20419;-71
2023/07/20 04:20:46;;;;;;;14.93;12.10;;;16.20;99.90;;;;;;5048185;28;20416;-71
2023/07/20 04:23:12;;;;;;;16.33;14.70;;;16.20;99.90;;;;;;5047797;28;20239;-71
2023/07/20 04:25:40;;;;;;;16.47;14.77;;;16.20;99.90;;;;;;5047737;28;20180;-71
2023/07/20 04:28:08;;;;;;;19.07;14.50;;;16.20;99.90;;;;;;5039696;28;20248;-71
2023/07/20 04:30:36;;;;;;;17.90;16.10;;;16.20;99.90;;;;;;5068074;28;20455;-71
2023/07/20 04:33:03;;;;;;;22.53;18.00;;;16.20;99.90;;;;;;5046468;28;20936;-71
2023/07/20 04:35:48;;;;;;;19.00;16.60;;;16.20;99.90;;;;;;5047338;28;20428;-72
2023/07/20 04:38:17;;;;;;;19.83;17.33;;;16.20;99.90;;;;;;5046190;28;20404;-71
2023/07/20 04:40:47;;;;;;;18.60;16.17;;;16.30;99.90;;;;;;5044568;28;20434;-71
2023/07/20 04:43:17;;;;;;;21.93;17.53;;;16.30;99.90;;;;;;5045785;28;20420;-71
2023/07/20 04:45:42;;;;;;;18.37;16.53;;;16.40;99.90;;;;;;5047334;28;20424;-71
2023/07/20 04:48:14;;;;;;;20.53;18.30;;;16.40;99.90;;;;;;5045085;28;20435;-70
2023/07/20 04:50:45;;;;;;;22.57;19.90;;;16.30;99.90;;;;;;5045814;28;20224;-70
2023/07/20 04:53:11;;;;;;;21.87;19.50;;;16.20;99.90;;;;;;5046479;28;20413;-70
2023/07/20 04:55:40;;;;;;;21.30;19.10;;;16.20;99.90;;;;;;5046988;28;20432;-70
2023/07/20 04:58:06;;;;;;;23.07;20.67;;;16.20;99.90;;;;;;5047712;28;20412;-71
2023/07/20 05:00:33;;;;;;;23.90;20.30;;;16.20;99.90;;;;;;5046842;28;20443;-70
2023/07/20 05:02:59;;;;;;;24.30;21.13;;;16.20;99.90;;;;;;5047209;28;20412;-70
2023/07/20 05:05:25;;;;;;;23.87;21.43;;;16.20;99.90;;;;;;5047612;28;20430;-71
2023/07/20 05:07:51;;;;;;;23.33;20.80;;;16.20;99.90;;;;;;5047655;28;20228;-71
2023/07/20 05:10:17;;;;;;;22.50;20.10;;;16.30;99.90;;;;;;5047809;28;20714;-71
2023/07/20 05:12:43;;;;;;;25.70;21.50;;;16.20;99.90;;;;;;5050095;28;20408;-71
2023/07/20 05:15:09;;;;;;;25.30;22.60;;;16.30;99.90;;;;;;5051346;28;20457;-71
2023/07/20 05:17:35;;;;;;;23.67;21.10;;;16.20;99.90;;;;;;5048610;28;20272;-71
2023/07/20 05:20:00;;;;;;;22.33;20.10;;;16.30;99.90;;;;;;5065684;28;20428;-71
2023/07/20 05:22:26;;;;;;;24.47;21.50;;;16.30;99.90;;;;;;5050559;28;20193;-71
2023/07/20 05:24:52;;;;;;;27.50;22.70;;;16.30;99.90;;;;;;5050345;28;20186;-71
2023/07/20 05:27:17;;;;;;;20.83;18.80;;;16.40;99.90;;;;;;5050490;28;20566;-71
2023/07/20 05:29:44;;;;;;;22.10;18.13;;;16.40;99.90;;;;;;5050843;28;20605;-71
2023/07/20 05:32:10;;;;;;;20.60;18.47;;;16.30;99.90;;;;;;5050503;28;20185;-71
2023/07/20 05:34:36;;;;;;;17.93;16.03;;;16.40;99.90;;;;;;5050541;28;20470;-71
2023/07/20 05:37:01;;;;;;;16.33;14.67;;;16.40;99.90;;;;;;5050585;28;20277;-71
2023/07/20 05:39:27;;;;;;;15.50;13.90;;;16.30;99.90;;;;;;5050579;28;20189;-71
2023/07/20 05:41:52;;;;;;;15.27;13.67;;;16.30;99.90;;;;;;5050282;28;20178;-71
2023/07/20 05:44:18;;;;;;;15.10;13.60;;;16.40;99.90;;;;;;5050220;28;20208;-71
2023/07/20 05:46:44;;;;;;;15.43;13.83;;;16.40;99.90;;;;;;5050139;28;20229;-71
2023/07/20 05:49:10;;;;;;;13.90;12.50;;;16.40;99.90;;;;;;5050685;28;20212;-71
2023/07/20 05:51:36;;;;;;;16.13;12.57;;;16.40;99.90;;;;;;5050536;28;20177;-71
2023/07/20 05:54:01;;;;;;;12.73;11.47;;;16.40;99.90;;;;;;5050299;28;20178;-71
2023/07/20 05:56:27;;;;;;;13.30;11.97;;;16.40;99.90;;;;;;5048923;28;20439;-71
2023/07/20 05:58:53;;;;;;;13.30;12.00;;;16.50;99.90;;;;;;5048684;28;20178;-71
2023/07/20 06:01:19;;;;;;;14.80;13.17;;;16.50;99.90;;;;;;5050490;28;20590;-71
2023/07/20 06:03:44;;;;;;;13.83;12.43;;;16.50;99.90;;;;;;5049657;28;20169;-71
2023/07/20 06:06:11;;;;;;;13.53;12.13;;;16.50;99.90;;;;;;5048843;28;20236;-71
2023/07/20 06:08:38;;;;;;;14.00;12.57;;;16.50;99.90;;;;;;5048769;28;20193;-71
2023/07/20 06:11:03;;;;;;;14.57;12.60;;;16.60;99.90;;;;;;5049506;28;20452;-71
2023/07/20 06:13:29;;;;;;;12.20;11.00;;;16.60;99.90;;;;;;5050004;28;20788;-71
2023/07/20 06:15:55;;;;;;;11.90;10.80;;;16.60;99.90;;;;;;5047576;28;20221;-71
2023/07/20 06:18:22;;;;;;;12.43;11.17;;;16.60;99.90;;;;;;5049766;28;20185;-71
2023/07/20 06:20:52;;;;;;;10.70;9.60;;;16.60;99.90;;;;;;5043915;28;20185;-71
2023/07/20 06:23:20;;;;;;;11.83;10.57;;;16.60;99.90;;;;;;5045576;28;20432;-71
2023/07/20 06:25:46;;;;;;;10.50;9.50;;;16.60;99.90;;;;;;5047357;28;20917;-71
2023/07/20 06:28:12;;;;;;;11.43;10.10;;;16.70;99.90;;;;;;5045728;28;20435;-71
2023/07/20 06:30:38;;;;;;;10.70;9.70;;;16.90;99.90;;;;;;5047824;28;20198;-71
2023/07/20 06:33:03;;;;;;;12.33;10.90;;;17.10;99.90;;;;;;5047724;28;20534;-71
2023/07/20 06:35:29;;;;;;;13.70;11.73;;;17.30;99.90;;;;;;5049620;28;20181;-71
2023/07/20 06:37:55;;;;;;;18.40;15.20;;;17.50;99.90;;;;;;5049850;28;20348;-71
2023/07/20 06:40:21;;;;;;;11.20;10.10;;;17.70;99.90;;;;;;5049266;28;20177;-71
2023/07/20 06:42:47;;;;;;;11.00;7.80;;;17.60;99.90;;;;;;5046306;28;20326;-71
2023/07/20 06:45:13;;;;;;;7.90;7.10;;;17.60;99.90;;;;;;5048330;28;20807;-71
2023/07/20 06:47:42;;;;;;;9.10;7.60;;;17.60;99.90;;;;;;5048954;28;20212;-71
2023/07/20 06:50:08;;;;;;;7.70;7.10;;;17.50;99.90;;;;;;5047971;28;20202;-71
2023/07/20 06:52:34;;;;;;;7.30;6.60;;;17.50;99.90;;;;;;5047968;28;20515;-71
2023/07/20 06:55:00;;;;;;;6.37;5.77;;;17.40;99.90;;;;;;5048556;28;20545;-71
2023/07/20 06:57:25;;;;;;;8.30;7.60;;;17.40;99.90;;;;;;5044763;28;20507;-71
2023/07/20 06:59:51;;;;;;;7.87;7.17;;;17.50;99.90;;;;;;5049019;28;20193;-71
2023/07/20 07:02:17;;;;;;;8.30;7.60;;;17.50;99.90;;;;;;5048843;28;20651;-71
2023/07/20 07:04:43;;;;;;;8.40;7.70;;;17.60;99.90;;;;;;5048797;28;20265;-71
2023/07/20 07:07:09;;;;;;;10.47;9.47;;;17.80;99.90;;;;;;5048967;28;20717;-71
2023/07/20 07:09:35;;;;;;;11.07;10.07;;;17.90;99.90;;;;;;5048901;28;20447;-71
2023/07/20 07:12:01;;;;;;;12.10;11.03;;;18.20;99.90;;;;;;5048362;28;20431;-71
2023/07/20 07:14:27;;;;;;;11.00;10.10;;;18.30;99.90;;;;;;5044343;28;20943;-71
2023/07/20 07:16:52;;;;;;;10.77;9.80;;;18.30;99.90;;;;;;5046389;28;20762;-71
2023/07/20 07:19:19;;;;;;;10.03;9.23;;;18.20;99.90;;;;;;5047772;28;20195;-71
2023/07/20 07:21:44;;;;;;;8.73;8.00;;;18.10;99.90;;;;;;5048896;28;20189;-71
2023/07/20 07:24:10;;;;;;;7.83;7.23;;;18.00;99.90;;;;;;5047273;28;20409;-71
2023/07/20 07:26:37;;;;;;;8.80;8.00;;;18.00;99.90;;;;;;5048201;28;20284;-72
2023/07/20 07:29:03;;;;;;;7.67;7.07;;;18.00;99.90;;;;;;5062530;28;20264;-72
2023/07/20 07:31:30;;;;;;;8.20;7.50;;;18.00;99.90;;;;;;5068906;28;20467;-72
2023/07/20 07:33:56;;;;;;;8.67;7.93;;;18.20;99.90;;;;;;5068001;28;20418;-72
2023/07/20 07:36:24;;;;;;;8.23;7.43;;;18.40;99.90;;;;;;5068587;28;20920;-72
2023/07/20 07:38:49;;;;;;;8.87;8.07;;;18.50;99.90;;;;;;5069021;28;20412;-72
2023/07/20 07:41:16;;;;;;;7.97;7.27;;;18.60;99.90;;;;;;5068978;28;20403;-72
2023/07/20 07:43:42;;;;;;;7.60;6.90;;;18.60;99.90;;;;;;5068214;28;20243;-72
2023/07/20 07:46:08;;;;;;;8.13;7.43;;;18.80;99.90;;;;;;5066947;28;20994;-72
2023/07/20 07:48:33;;;;;;;6.80;6.23;;;18.90;99.90;;;;;;5060875;28;20413;-72
2023/07/20 07:50:59;;;;;;;6.53;5.57;;;18.90;99.90;;;;;;5048053;28;20233;-72
2023/07/20 07:53:25;;;;;;;5.03;4.63;;;19.00;99.90;;;;;;5048059;28;20189;-72
2023/07/20 07:55:52;;;;;;;5.63;5.23;;;19.10;99.90;;;;;;5047217;28;20209;-72
2023/07/20 07:58:18;;;;;;;8.93;7.80;;;19.20;99.90;;;;;;5048206;28;20766;-72
2023/07/20 08:00:44;;;;;;;7.73;7.13;;;19.10;99.90;;;;;;5048621;28;20412;-72
2023/07/20 08:03:10;;;;;;;7.73;6.97;;;18.90;99.90;;;;;;5047928;28;20441;-72
2023/07/20 08:05:36;;;;;;;7.33;6.63;;;18.90;99.90;;;;;;5048119;28;20182;-72
2023/07/20 08:08:04;;;;;;;8.50;7.70;;;18.90;99.90;;;;;;5048130;28;20222;-72
2023/07/20 08:10:31;;;;;;;6.20;5.70;;;18.90;99.90;;;;;;5048148;28;20451;-72
2023/07/20 08:12:57;;;;;;;4.00;3.70;;;18.80;99.90;;;;;;5048027;28;20411;-72
2023/07/20 08:15:23;;;;;;;43.43;11.57;;;18.90;99.90;;;;;;5048077;28;20416;-72
2023/07/20 08:17:51;;;;;;;15.00;7.80;;;18.70;99.90;;;;;;5048257;28;20227;-72
2023/07/20 08:20:17;;;;;;;4.13;3.83;;;18.60;99.90;;;;;;5048237;28;20439;-72
2023/07/20 08:22:43;;;;;;;18.37;8.33;;;18.50;99.90;;;;;;5047837;28;20428;-72
2023/07/20 08:25:09;;;;;;;13.30;6.87;;;18.30;99.90;;;;;;5047860;28;20420;-72
2023/07/20 08:27:36;;;;;;;10.63;7.27;;;18.30;99.90;;;;;;5047756;28;20209;-72
2023/07/20 08:30:04;;;;;;;13.67;7.83;;;18.20;99.90;;;;;;5047966;28;20463;-72
2023/07/20 08:32:30;;;;;;;7.23;6.53;;;18.10;99.90;;;;;;5047813;28;20502;-72
2023/07/20 08:34:55;;;;;;;11.00;8.33;;;18.20;99.90;;;;;;5047841;28;20420;-72
2023/07/20 08:37:21;;;;;;;38.63;6.70;;;18.30;99.90;;;;;;5047938;28;20225;-72
2023/07/20 08:39:47;;;;;;;5.57;5.07;;;18.40;99.90;;;;;;5047309;28;20178;-72
2023/07/20 08:42:14;;;;;;;5.80;5.40;;;18.60;99.90;;;;;;5047571;28;20174;-72
2023/07/20 08:44:42;;;;;;;6.37;5.77;;;18.70;99.90;;;;;;5047607;28;20169;-72
2023/07/20 08:47:10;;;;;;;6.90;6.40;;;18.90;99.90;;;;;;5049713;28;20853;-72
2023/07/20 08:49:38;;;;;;;6.27;5.67;;;18.80;99.90;;;;;;5051671;28;20455;-72
2023/07/20 08:52:04;;;;;;;5.50;5.00;;;18.80;99.90;;;;;;5051472;28;20499;-72
2023/07/20 08:54:33;;;;;;;4.60;4.20;;;18.90;99.90;;;;;;5051526;28;20404;-72
2023/07/20 08:57:03;;;;;;;5.70;5.00;;;19.00;99.90;;;;;;5049732;28;20428;-72
2023/07/20 08:59:30;;;;;;;3.73;3.53;;;19.00;99.90;;;;;;5051544;28;20474;-72
2023/07/20 09:02:00;;;;;;;4.17;3.73;;;19.00;99.90;;;;;;5051563;28;20777;-72
2023/07/20 09:04:25;;;;;;;3.60;3.40;;;19.00;99.90;;;;;;5050013;28;20483;-72
2023/07/20 09:06:52;;;;;;;3.80;3.50;;;19.10;99.90;;;;;;5051091;28;20547;-72
2023/07/20 09:09:17;;;;;;;4.30;3.90;;;19.20;99.90;;;;;;5051250;28;20205;-72
2023/07/20 09:11:47;;;;;;;4.60;4.17;;;19.30;99.90;;;;;;5050053;28;20405;-72
2023/07/20 09:14:12;;;;;;;10.13;6.00;;;19.40;99.90;;;;;;5050821;28;20170;-72
2023/07/20 09:16:54;;;;;;;7.73;6.93;;;19.40;99.90;;;;;;5050863;28;20489;-72
2023/07/20 09:19:21;;;;;;;7.67;6.87;;;19.40;99.90;;;;;;5051378;28;20511;-72
2023/07/20 09:21:51;;;;;;;30.80;12.30;;;19.60;99.90;;;;;;5051050;28;20419;-72
2023/07/20 09:24:20;;;;;;;8.50;7.67;;;19.50;99.90;;;;;;5049647;28;20419;-72
2023/07/20 09:26:48;;;;;;;7.83;6.40;;;19.40;99.90;;;;;;5050347;28;20527;-72
2023/07/20 09:29:17;;;;;;;6.63;5.97;;;19.20;99.90;;;;;;5049657;28;20582;-72
2023/07/20 09:31:57;;;;;;;5.47;5.07;;;19.30;99.90;;;;;;5050947;28;20491;-72
2023/07/20 09:34:23;;;;;;;5.37;4.87;;;19.40;99.90;;;;;;5049635;28;20446;-71
2023/07/20 09:36:49;;;;;;;8.00;6.10;;;19.60;99.90;;;;;;5050509;28;20972;-71
2023/07/20 09:39:14;;;;;;;7.43;6.73;;;19.80;99.90;;;;;;5050891;28;20916;-71
2023/07/20 09:41:42;;;;;;;6.50;6.00;;;20.00;99.90;;;;;;5049498;28;20216;-71
2023/07/20 09:44:10;;;;;;;6.57;5.90;;;20.10;99.90;;;;;;5050269;28;20185;-71
2023/07/20 09:46:46;;;;;;;7.00;6.40;;;20.30;99.90;;;;;;5050221;28;20436;-72
2023/07/20 09:49:13;;;;;;;7.77;7.17;;;20.40;99.90;;;;;;5050548;28;20420;-71
2023/07/20 09:51:40;;;;;;;7.60;6.90;;;20.40;99.90;;;;;;5049123;28;20412;-71
2023/07/20 09:54:06;;;;;;;7.90;7.20;;;20.50;99.90;;;;;;5049278;28;20925;-71
2023/07/20 09:56:33;;;;;;;9.97;7.07;;;20.60;99.90;;;;;;5050108;28;20428;-72
2023/07/20 09:58:59;;;;;;;17.13;7.73;;;20.80;99.90;;;;;;5050126;28;20416;-72
2023/07/20 10:01:27;;;;;;;7.00;6.27;;;20.80;99.90;;;;;;5049195;28;20844;-72
2023/07/20 10:03:57;;;;;;;6.93;6.43;;;21.00;99.90;;;;;;5049995;28;20240;-72
2023/07/20 10:06:24;;;;;;;12.00;6.13;;;20.80;99.90;;;;;;5049941;28;20432;-72
2023/07/20 10:08:53;;;;;;;6.43;5.93;;;20.80;99.90;;;;;;5050224;28;20443;-71
2023/07/20 10:11:22;;;;;;;7.27;6.57;;;20.90;99.90;;;;;;5050153;28;20863;-71
2023/07/20 10:13:51;;;;;;;5.23;4.83;;;21.10;99.90;;;;;;5048672;28;20443;-72
2023/07/20 10:16:26;;;;;;;5.70;5.30;;;21.20;99.90;;;;;;5049710;28;20432;-72
2023/07/20 10:19:17;;;;;;;6.00;5.00;;;21.20;99.90;;;;;;5050333;28;20491;-72
2023/07/20 10:21:49;;;;;;;4.67;4.37;;;21.40;99.90;;;;;;5049999;28;20503;-72
2023/07/20 10:24:16;;;;;;;4.63;4.00;;;21.50;99.90;;;;;;5049629;28;20808;-72
2023/07/20 10:26:42;;;;;;;4.80;4.13;;;21.50;99.90;;;;;;5049614;28;20999;-72
2023/07/20 10:29:08;;;;;;;3.67;3.47;;;21.60;99.90;;;;;;5049643;28;20416;-72
2023/07/20 10:31:35;;;;;;;3.83;3.60;;;21.70;99.90;;;;;;5049818;28;20560;-72
2023/07/20 10:34:01;;;;;;;3.53;3.33;;;21.80;99.90;;;;;;5049321;28;20408;-72
2023/07/20 10:36:27;;;;;;;4.07;3.63;;;22.00;99.90;;;;;;5046284;28;20463;-72
2023/07/20 10:38:57;;;;;;;3.27;3.07;;;22.10;99.90;;;;;;5048855;28;20420;-72
2023/07/20 10:41:33;;;;;;;2.87;2.67;;;22.10;99.90;;;;;;5049022;28;20419;-72
2023/07/20 10:44:02;;;;;;;2.83;2.63;;;22.20;99.90;;;;;;5045428;28;20746;-72
2023/07/20 10:46:39;;;;;;;2.03;1.90;;;22.20;99.90;;;;;;5048681;28;20562;-72
2023/07/20 10:49:10;;;;;;;2.40;2.20;;;22.10;99.30;;;;;;5049080;28;20408;-72
2023/07/20 10:51:44;;;;;;;2.27;2.07;;;22.20;99.70;;;;;;5049049;28;20511;-72
2023/07/20 10:54:33;;;;;;;2.10;2.00;;;22.20;98.30;;;;;;5048527;28;20448;-72
2023/07/20 10:57:23;;;;;;;3.27;2.00;;;22.30;99.80;;;;;;5033999;28;20984;-72
2023/07/20 10:59:48;;;;;;;2.30;2.10;;;22.20;97.90;;;;;;5049159;28;20420;-72
2023/07/20 11:02:18;;;;;;;2.50;2.30;;;22.30;99.40;;;;;;5048462;28;20431;-72
2023/07/20 11:04:46;;;;;;;2.13;1.80;;;22.10;99.90;;;;;;5048593;28;20243;-72
2023/07/20 11:07:17;;;;;;;2.30;1.73;;;22.10;99.90;;;;;;5048397;28;20451;-72
2023/07/20 11:09:42;;;;;;;1.90;1.80;;;22.20;99.90;;;;;;5046719;28;20463;-72
2023/07/20 11:12:16;;;;;;;2.80;2.00;;;22.20;99.90;;;;;;5042463;28;20416;-72
2023/07/20 11:14:58;;;;;;;2.03;1.87;;;22.10;99.90;;;;;;5048758;28;20169;-73
2023/07/20 11:17:33;;;;;;;2.40;2.20;;;22.20;99.90;;;;;;5048433;28;20432;-72
2023/07/20 11:20:01;;;;;;;2.23;1.73;;;22.20;99.40;;;;;;5048676;28;20457;-72
2023/07/20 11:22:27;;;;;;;2.03;1.73;;;22.30;99.90;;;;;;5048193;28;20531;-72
2023/07/20 11:24:56;;;;;;;1.70;1.60;;;22.20;98.50;;;;;;5048443;28;20783;-72
2023/07/20 11:27:22;;;;;;;1.50;1.40;;;22.10;99.00;;;;;;5048015;28;20436;-72
2023/07/20 11:29:48;;;;;;;2.77;1.70;;;22.00;99.40;;;;;;5053404;28;20489;-72
2023/07/20 11:32:21;;;;;;;1.77;1.40;;;22.10;99.30;;;;;;5047844;28;20746;-72
2023/07/20 11:34:47;;;;;;;1.70;1.60;;;22.20;99.30;;;;;;5048559;28;20837;-72
2023/07/20 11:37:13;;;;;;;2.97;1.63;;;22.40;99.60;;;;;;5047862;28;20802;-72
2023/07/20 11:39:39;;;;;;;1.90;1.80;;;22.40;96.10;;;;;;5048555;28;20421;-72
2023/07/20 11:42:06;;;;;;;1.70;1.60;;;22.40;97.30;;;;;;5047569;28;20184;-72
2023/07/20 11:44:32;;;;;;;1.70;1.60;;;22.30;97.00;;;;;;5048322;28;20416;-72
2023/07/20 11:47:04;;;;;;;2.33;1.90;;;22.50;97.40;;;;;;5047921;28;20581;-72
2023/07/20 11:49:30;;;;;;;1.60;1.50;;;22.50;98.60;;;;;;5048484;28;20448;-72
2023/07/20 11:51:57;;;;;;;2.77;2.07;;;22.50;99.20;;;;;;5047909;28;20424;-72
2023/07/20 11:54:24;;;;;;;1.70;1.60;;;22.40;98.60;;;;;;5047921;28;20416;-72
2023/07/20 11:56:56;;;;;;;1.63;1.53;;;22.20;98.40;;;;;;5046635;28;20440;-72
2023/07/20 11:59:22;;;;;;;1.90;1.80;;;22.00;98.40;;;;;;5047073;28;20843;-72
2023/07/20 12:01:47;;;;;;;2.07;1.90;;;21.90;98.90;;;;;;5048046;28;20413;-72
2023/07/20 12:04:13;;;;;;;2.13;2.03;;;21.80;96.70;;;;;;5047655;28;20182;-72
2023/07/20 12:06:39;;;;;;;2.30;2.10;;;21.80;97.70;;;;;;5046220;28;20201;-72
2023/07/20 12:09:05;;;;;;;1.93;1.83;;;22.00;99.70;;;;;;5047724;28;20178;-72
2023/07/20 12:11:39;;;;;;;2.50;1.83;;;22.10;98.60;;;;;;5047869;28;20224;-72
2023/07/20 12:14:09;;;;;;;1.83;1.70;;;22.20;97.40;;;;;;5047419;28;20178;-72
2023/07/20 12:16:36;;;;;;;1.60;1.50;;;22.20;98.40;;;;;;5047675;28;21028;-72
2023/07/20 12:19:06;;;;;;;1.80;1.70;;;22.20;97.00;;;;;;5047681;28;20419;-72
2023/07/20 12:21:34;;;;;;;2.40;2.20;;;22.30;97.70;;;;;;5050731;28;20494;-72
2023/07/20 12:24:00;;;;;;;2.57;2.13;;;22.40;97.30;;;;;;5051520;28;20769;-73
2023/07/20 12:26:28;;;;;;;3.97;2.10;;;22.60;98.60;;;;;;5051729;28;20431;-72
2023/07/20 12:28:54;;;;;;;1.80;1.70;;;22.80;98.70;;;;;;5056796;28;20493;-73
2023/07/20 12:31:22;;;;;;;2.90;1.80;;;22.90;96.90;;;;;;5051904;28;20863;-72
2023/07/20 12:33:48;;;;;;;1.90;1.80;;;23.00;95.80;;;;;;5051577;28;20931;-72
2023/07/20 12:36:14;;;;;;;2.10;1.80;;;23.00;95.70;;;;;;5051558;28;20436;-72
2023/07/20 12:38:41;;;;;;;2.17;1.97;;;23.00;95.90;;;;;;5051460;28;20416;-72
2023/07/20 12:41:09;;;;;;;1.70;1.60;;;23.00;96.00;;;;;;5051645;28;20223;-72